| time (UTC) | temp C | wind direction | speed KPH | gust KPH | rain 1hr cm | rain 24hr cm | rain mn cm | humidity % | barometer mb |
| 20260902063024 | 16 | 202 | 19.3 | 32.2 | 0.00 | 0.00 | 0.00 | 58 | 999.5 |
| 20260902061520 | 16 | 227 | 24.1 | 30.6 | 0.00 | 0.00 | 0.00 | 58 | 999.3 |
| 20260902060019 | 16 | 224 | 19.3 | 33.8 | 0.00 | 0.00 | 0.00 | 57 | 999.1 |
| 20260902054522 | 16 | 229 | 19.3 | 29.0 | 0.00 | 0.00 | 0.00 | 56 | 999.0 |
| 20260902053014 | 16 | 213 | 19.3 | 30.6 | 0.00 | 0.00 | 0.00 | 55 | 999.1 |
| 20260902051606 | 17 | 206 | 20.9 | 37.0 | 0.00 | 0.00 | 0.00 | 54 | 998.9 |
| 20260902050057 | 17 | 204 | 27.4 | 38.6 | 0.00 | 0.00 | 0.00 | 52 | 998.7 |
| 20260902044554 | 17 | 175 | 22.5 | 32.2 | 0.00 | 0.00 | 0.00 | 51 | 998.7 |
| 20260902043054 | 18 | 205 | 25.7 | 32.2 | 0.00 | 0.00 | 0.00 | 49 | 998.6 |
| 20260902041602 | 18 | 199 | 17.7 | 27.4 | 0.00 | 0.00 | 0.00 | 46 | 998.3 |
| 20260902040044 | 19 | 210 | 17.7 | 30.6 | 0.00 | 0.00 | 0.00 | 44 | 997.8 |
| 20260902034544 | 19 | 212 | 19.3 | 27.4 | 0.00 | 0.00 | 0.00 | 43 | 997.7 |
| 20260902033048 | 20 | 232 | 17.7 | 25.7 | 0.00 | 0.00 | 0.00 | 41 | 997.6 |
| 20260902031528 | 20 | 214 | 17.7 | 24.1 | 0.00 | 0.00 | 0.00 | 40 | 997.2 |
| 20260902030027 | 21 | 211 | 16.1 | 24.1 | 0.00 | 0.00 | 0.00 | 40 | 997.0 |
| 20260902024526 | 21 | 212 | 8.0 | 14.5 | 0.00 | 0.00 | 0.00 | 38 | 996.9 |
| 20260902023038 | 22 | 219 | 9.7 | 14.5 | 0.00 | 0.00 | 0.00 | 37 | 996.8 |
| 20260902021538 | 22 | 207 | 8.0 | 12.9 | 0.00 | 0.00 | 0.00 | 37 | 996.5 |
| 20260902020025 | 23 | 215 | 6.4 | 11.3 | 0.00 | 0.00 | 0.00 | 38 | 996.4 |
| 20260902014524 | 23 | 237 | 1.6 | 4.8 | 0.00 | 0.00 | 0.00 | 36 | 996.4 |
| 20260902013023 | 25 | 232 | 0.0 | 1.6 | 0.00 | 0.00 | 0.00 | 36 | 996.4 |
| 20260902011511 | 25 | 226 | 3.2 | 8.0 | 0.00 | 0.00 | 0.00 | 35 | 996.5 |
| 20260902010005 | 25 | 258 | 1.6 | 6.4 | 0.00 | 0.00 | 0.00 | 34 | 996.4 |
| 20260902004550 | 25 | 245 | 8.0 | 12.9 | 0.00 | 0.00 | 0.00 | 34 | 996.4 |
| 20260902003055 | 25 | 234 | 9.7 | 14.5 | 0.00 | 0.00 | 0.00 | 33 | 996.2 |
| 20260902001549 | 25 | 246 | 9.7 | 14.5 | 0.00 | 0.00 | 0.00 | 33 | 996.2 |
| 20260902000111 | 26 | 203 | 6.4 | 14.5 | 0.00 | 0.00 | 0.00 | 32 | 996.2 |
| 20260901234546 | 26 | 247 | 8.0 | 16.1 | 0.00 | 0.00 | 0.00 | 32 | 996.4 |
| 20260901233044 | 26 | 236 | 6.4 | 12.9 | 0.00 | 0.00 | 0.00 | 31 | 996.4 |
| 20260901231550 | 26 | 243 | 11.3 | 19.3 | 0.00 | 0.00 | 0.00 | 32 | 996.5 |
| 20260901230046 | 26 | 269 | 8.0 | 14.5 | 0.00 | 0.00 | 0.00 | 34 | 996.6 |
| 20260901224542 | 25 | 268 | 9.7 | 19.3 | 0.00 | 0.00 | 0.00 | 35 | 996.8 |
| 20260901223039 | 25 | 207 | 12.9 | 20.9 | 0.00 | 0.00 | 0.00 | 36 | 997.0 |
| 20260901221537 | 25 | 248 | 11.3 | 20.9 | 0.00 | 0.00 | 0.00 | 36 | 997.2 |
| 20260901220055 | 24 | 219 | 14.5 | 19.3 | 0.00 | 0.00 | 0.00 | 39 | 997.1 |
| 20260901214533 | 24 | 255 | 12.9 | 20.9 | 0.00 | 0.00 | 0.00 | 40 | 997.1 |
| 20260901213100 | 24 | 250 | 11.3 | 19.3 | 0.00 | 0.00 | 0.00 | 40 | 997.2 |
| 20260901211555 | 24 | 245 | 9.7 | 19.3 | 0.00 | 0.00 | 0.00 | 40 | 997.3 |
| 20260901210058 | 24 | 243 | 12.9 | 20.9 | 0.00 | 0.00 | 0.00 | 42 | 997.7 |
| 20260901204545 | 23 | 265 | 14.5 | 20.9 | 0.00 | 0.00 | 0.00 | 43 | 997.8 |
| 20260901203058 | 23 | 248 | 16.1 | 25.7 | 0.00 | 0.00 | 0.00 | 42 | 997.7 |
| 20260901201525 | 23 | 268 | 16.1 | 24.1 | 0.00 | 0.00 | 0.00 | 43 | 997.8 |
| 20260901200030 | 22 | 232 | 16.1 | 25.7 | 0.00 | 0.00 | 0.00 | 46 | 998.0 |
| 20260901194501 | 21 | 246 | 17.7 | 25.7 | 0.00 | 0.00 | 0.00 | 49 | 998.0 |
| 20260901193112 | 21 | 259 | 17.7 | 27.4 | 0.00 | 0.00 | 0.00 | 51 | 998.2 |
| 20260901191543 | 20 | 236 | 14.5 | 20.9 | 0.00 | 0.00 | 0.00 | 52 | 998.7 |
| 20260901190043 | 19 | 212 | 1.6 | 9.7 | 0.00 | 0.00 | 0.00 | 53 | 998.9 |
| 20260901184540 | 19 | 225 | 8.0 | 12.9 | 0.00 | 0.00 | 0.00 | 53 | 999.0 |
| 20260901183046 | 20 | 202 | 9.7 | 16.1 | 0.00 | 0.00 | 0.00 | 51 | 998.9 |
| 20260901181537 | 20 | 214 | 9.7 | 17.7 | 0.00 | 0.00 | 0.00 | 50 | 999.1 |
| 20260901180036 | 19 | 244 | 11.3 | 16.1 | 0.00 | 0.00 | 0.00 | 50 | 999.0 |
| 20260901174534 | 19 | 248 | 6.4 | 11.3 | 0.00 | 0.00 | 0.00 | 50 | 998.4 |
| 20260901173047 | 19 | 256 | 9.7 | 17.7 | 0.00 | 0.00 | 0.00 | 50 | 998.6 |
| 20260901171511 | 19 | 250 | 14.5 | 22.5 | 0.00 | 0.00 | 0.00 | 50 | 998.9 |
| 20260901170011 | 18 | 218 | 14.5 | 19.3 | 0.00 | 0.00 | 0.00 | 50 | 999.4 |
| 20260901164632 | 18 | 217 | 14.5 | 24.1 | 0.00 | 0.00 | 0.00 | 48 | 999.1 |
| 20260901163057 | 19 | 214 | 11.3 | 17.7 | 0.00 | 0.00 | 0.00 | 47 | 998.7 |
| 20260901161556 | 19 | 243 | 9.7 | 16.1 | 0.00 | 0.00 | 0.00 | 46 | 998.5 |
| 20260901160059 | 20 | 235 | 12.9 | 19.3 | 0.00 | 0.00 | 0.00 | 45 | 998.6 |
| 20260901154554 | 20 | 252 | 11.3 | 17.7 | 0.00 | 0.00 | 0.00 | 43 | 998.7 |
| 20260901153053 | 18 | 159 | 9.7 | 14.5 | 0.00 | 0.00 | 0.00 | 43 | 998.8 |
| 20260901151553 | 17 | 170 | 6.4 | 9.7 | 0.00 | 0.00 | 0.00 | 45 | 998.6 |
| 20260901150056 | 16 | 155 | 8.0 | 11.3 | 0.00 | 0.00 | 0.00 | 46 | 998.6 |
| 20260901144551 | 16 | 124 | 1.6 | 6.4 | 0.00 | 0.00 | 0.00 | 45 | 998.4 |
| 20260901143042 | 16 | 127 | 6.4 | 9.7 | 0.00 | 0.00 | 0.00 | 45 | 998.4 |
| 20260901141532 | 15 | 136 | 0.0 | 3.2 | 0.00 | 0.00 | 0.00 | 46 | 998.3 |
| 20260901140016 | 15 | 105 | 1.6 | 4.8 | 0.00 | 0.00 | 0.00 | 46 | 998.1 |
| 20260901134624 | 15 | 106 | 1.6 | 4.8 | 0.00 | 0.00 | 0.00 | 46 | 997.9 |
| 20260901133058 | 15 | 119 | 3.2 | 4.8 | 0.00 | 0.00 | 0.00 | 45 | 997.8 |
| 20260901131556 | 15 | 158 | 1.6 | 4.8 | 0.00 | 0.00 | 0.00 | 45 | 997.6 |
| 20260901130043 | 16 | 124 | 3.2 | 6.4 | 0.00 | 0.00 | 0.00 | 44 | 997.5 |
| 20260901124539 | 16 | 127 | 3.2 | 8.0 | 0.00 | 0.00 | 0.00 | 44 | 997.5 |
| 20260901123022 | 16 | 110 | 1.6 | 6.4 | 0.00 | 0.00 | 0.00 | 44 | 997.7 |
| 20260901121519 | 16 | 131 | 1.6 | 6.4 | 0.00 | 0.00 | 0.00 | 45 | 997.6 |
| 20260901120006 | 16 | 87 | 3.2 | 6.4 | 0.00 | 0.00 | 0.00 | 46 | 997.5 |
| 20260901114507 | 16 | 53 | 0.0 | 3.2 | 0.00 | 0.00 | 0.00 | 47 | 997.5 |
| 20260901113006 | 16 | 131 | 0.0 | 1.6 | 0.00 | 0.00 | 0.00 | 48 | 997.5 |
| 20260901111505 | 16 | 117 | 1.6 | 3.2 | 0.00 | 0.00 | 0.00 | 48 | 997.6 |
| 20260901110003 | 16 | 97 | 0.0 | 4.8 | 0.00 | 0.00 | 0.00 | 48 | 997.8 |
| 20260901104503 | 15 | 101 | 3.2 | 6.4 | 0.00 | 0.00 | 0.00 | 51 | 997.9 |
| 20260901103059 | 16 | 126 | 0.0 | 4.8 | 0.00 | 0.00 | 0.00 | 48 | 997.7 |
| 20260901101607 | 16 | 123 | 0.0 | 3.2 | 0.00 | 0.00 | 0.00 | 47 | 997.9 |
| 20260901100041 | 16 | 115 | 0.0 | 3.2 | 0.00 | 0.00 | 0.00 | 47 | 998.0 |
| 20260901094541 | 16 | 93 | 0.0 | 3.2 | 0.00 | 0.00 | 0.00 | 47 | 998.1 |
| 20260901093021 | 16 | 75 | 0.0 | 1.6 | 0.00 | 0.00 | 0.00 | 48 | 998.2 |
| 20260901091520 | 16 | 75 | 0.0 | 3.2 | 0.00 | 0.00 | 0.00 | 47 | 998.3 |
| 20260901090011 | 16 | 84 | 1.6 | 3.2 | 0.00 | 0.00 | 0.00 | 47 | 998.2 |
| 20260901084507 | 16 | 82 | 1.6 | 4.8 | 0.00 | 0.00 | 0.00 | 48 | 998.2 |
| 20260901083007 | 17 | 91 | 0.0 | 1.6 | 0.00 | 0.00 | 0.00 | 47 | 998.3 |
| 20260901081505 | 16 | 91 | 1.6 | 6.4 | 0.00 | 0.00 | 0.00 | 47 | 998.4 |
| 20260901080005 | 16 | 98 | 0.0 | 3.2 | 0.00 | 0.00 | 0.00 | 47 | 998.4 |
| 20260901074506 | 16 | 94 | 0.0 | 0.0 | 0.00 | 0.00 | 0.00 | 46 | 998.4 |
| 20260901073003 | 17 | 94 | 0.0 | 3.2 | 0.00 | 0.00 | 0.00 | 46 | 998.4 |
| 20260901071504 | 17 | 89 | 1.6 | 3.2 | 0.00 | 0.00 | 0.00 | 46 | 998.2 |
| 20260901070047 | 18 | 108 | 1.6 | 1.6 | 0.00 | 0.00 | 0.00 | 43 | 998.2 |
| 20260901064545 | 18 | 108 | 0.0 | 3.2 | 0.00 | 0.00 | 0.00 | 43 | 998.1 |